Lewisville, Arkansas
Current Conditions -  °F | °C
As of 6:53 AM on Thursday 23 Oct 2014 (Local Time) from KTXK Reporting Station
Clear Clear  
Wind Chill: 53°   Ceiling: Unl
Heat Index: 53°   Visibility: 9mi
Dew Point: 50°   Wind: 3mph
Humidity: 89%   Direction: 30°NNE
Pressure: 30.17"   Gusts: NA
Location:  33.36°N, 93.58°W
Report Text: KTXK 231153Z 03003KT 9SM CLR 12/10 A3017 RMK AO2 SLP212 T01170100 10133 20111 53008
Loading
Personal Weather Stations






























Interactive Weather Map
Tropical Storm Tracking
New forecast layout! Learn more

10-Day Weather Forecast

Advertisements
Track Severe Weather on mobile